KMGR/MGR METAR and TAF weather

Enter ICAO airport designator
Station Type Date Time Source
KMGR METAR 2024/06/16 09:35 UTC NOAA

KMGR 160935Z AUTO 00000KT 10SM CLR 21/21 A3002 RMK AO2 T02150212 $


Station Type Date Time Source
KMGR Decoded METAR 2024/06/16 09:35 UTC NOAA

Moultrie, Moultrie Municipal Airport, GA, United States (KMGR) 31-05-05N 083-48-11W
Jun 16, 2024 - 05:35 AM EDT / 2024.06.16 0935 UTC
Wind: Calm:0
Visibility: 10 mile(s):0
Sky conditions: clear
Temperature: 70.7 F (21.5 C)
Dew Point: 70.2 F (21.2 C)
Relative Humidity: 98%
Pressure (altimeter): 30.02 in. Hg (1016 hPa)
ob: KMGR 160935Z AUTO 00000KT 10SM CLR 21/21 A3002 RMK AO2 T02150212
cycle: 9

Station Type Date Time Source
KMGR TAF UTC NOAA

Error!

Example: see airport list